createdAt,value
2023-02-13T00:00:54.506Z,8.69
2023-02-13T00:01:59.133Z,8.69
2023-02-13T00:03:00.686Z,8.69
2023-02-13T00:04:02.329Z,8.68
2023-02-13T00:05:04.059Z,8.68
2023-02-13T00:06:05.736Z,8.69
2023-02-13T00:07:07.308Z,8.70
2023-02-13T00:08:08.870Z,8.70
2023-02-13T00:09:10.878Z,8.69
2023-02-13T00:10:12.764Z,8.69
2023-02-13T00:11:14.973Z,8.69
2023-02-13T00:12:16.517Z,8.70
2023-02-13T00:13:17.917Z,8.68
2023-02-13T00:14:19.371Z,8.69
2023-02-13T00:15:20.973Z,8.69
2023-02-13T00:16:22.499Z,8.69
2023-02-13T00:17:24.852Z,8.69
2023-02-13T00:18:28.200Z,8.69
2023-02-13T00:19:29.729Z,8.68
2023-02-13T00:20:31.302Z,8.68
2023-02-13T00:21:32.954Z,8.69
2023-02-13T00:22:37.767Z,8.69
2023-02-13T00:23:40.154Z,8.69
2023-02-13T00:24:42.435Z,8.69
2023-02-13T00:26:41.149Z,8.70
2023-02-13T00:27:43.260Z,8.71
2023-02-13T00:28:45.344Z,8.69
2023-02-13T00:29:46.878Z,8.67
2023-02-13T00:30:48.469Z,8.66
2023-02-13T00:31:50.294Z,8.66
2023-02-13T00:32:52.001Z,8.66
2023-02-13T00:33:53.455Z,8.64
2023-02-13T00:34:55.850Z,8.64
2023-02-13T00:36:10.146Z,8.62
2023-02-13T00:37:12.193Z,8.61
2023-02-13T00:38:13.828Z,8.61
2023-02-13T00:39:15.299Z,8.61
2023-02-13T00:40:16.817Z,8.60
2023-02-13T00:41:18.255Z,8.58
2023-02-13T00:42:23.434Z,8.57
2023-02-13T00:43:25.618Z,8.57
2023-02-13T00:44:27.100Z,8.57
2023-02-13T00:45:29.100Z,8.55
2023-02-13T00:46:30.929Z,8.54
2023-02-13T00:47:32.718Z,8.53
2023-02-13T00:48:34.808Z,8.53
2023-02-13T00:49:36.248Z,8.52
2023-02-13T00:50:37.791Z,8.51
2023-02-13T00:51:39.307Z,8.52
2023-02-13T00:52:41.075Z,8.50
2023-02-13T00:53:42.741Z,8.49
2023-02-13T00:54:44.298Z,8.47
2023-02-13T00:55:48.467Z,8.47
2023-02-13T00:56:49.914Z,8.45
2023-02-13T00:57:51.525Z,8.45
2023-02-13T00:58:53.195Z,8.45
2023-02-13T00:59:54.676Z,8.44
2023-02-13T01:00:56.607Z,8.43
2023-02-13T01:01:59.208Z,8.43
2023-02-13T01:03:01.139Z,8.42
2023-02-13T01:04:03.052Z,8.41
2023-02-13T01:05:04.806Z,8.40
2023-02-13T01:06:07.107Z,8.39
2023-02-13T01:07:08.576Z,8.39
2023-02-13T01:08:12.167Z,8.38
2023-02-13T01:09:13.912Z,8.38
2023-02-13T01:10:15.844Z,8.37
2023-02-13T01:11:18.609Z,8.36
2023-02-13T01:12:20.021Z,8.35
2023-02-13T01:13:21.683Z,8.33
2023-02-13T01:14:23.288Z,8.33
2023-02-13T01:15:25.135Z,8.32
2023-02-13T01:16:27.109Z,8.32
2023-02-13T01:17:28.770Z,8.31
2023-02-13T01:18:31.574Z,8.31
2023-02-13T01:19:33.590Z,8.31
2023-02-13T01:20:35.223Z,8.31
2023-02-13T01:21:36.867Z,8.31
2023-02-13T01:22:38.805Z,8.31
2023-02-13T01:23:40.712Z,8.31
2023-02-13T01:24:42.314Z,8.30
2023-02-13T01:25:43.971Z,8.28
2023-02-13T01:26:45.504Z,8.28
2023-02-13T01:27:47.521Z,8.28
2023-02-13T01:28:54.434Z,8.27
2023-02-13T01:29:56.213Z,8.27
2023-02-13T01:30:58.925Z,8.25
2023-02-13T01:32:03.922Z,8.26
2023-02-13T01:33:05.616Z,8.25
2023-02-13T01:34:08.036Z,8.24
2023-02-13T01:35:10.480Z,8.24
2023-02-13T01:36:13.519Z,8.23
2023-02-13T01:37:15.266Z,8.22
2023-02-13T01:38:17.407Z,8.23
2023-02-13T01:39:19.169Z,8.22
2023-02-13T01:40:20.822Z,8.22
2023-02-13T01:41:24.292Z,8.21
2023-02-13T01:42:28.852Z,8.22
2023-02-13T01:44:03.140Z,8.22
2023-02-13T01:45:19.745Z,8.19
2023-02-13T01:46:38.254Z,8.19
2023-02-13T01:47:46.894Z,8.19
2023-02-13T01:48:50.791Z,8.19
2023-02-13T01:50:04.908Z,8.19
2023-02-13T01:51:17.728Z,8.16
2023-02-13T01:52:21.129Z,8.13
2023-02-13T01:53:29.651Z,8.12
2023-02-13T01:54:33.870Z,8.13
2023-02-13T01:55:47.378Z,8.11
2023-02-13T01:56:57.588Z,8.11
2023-02-13T01:58:09.053Z,8.12
2023-02-13T01:59:15.203Z,8.11
2023-02-13T02:00:17.269Z,8.11
2023-02-13T02:01:23.894Z,8.12
2023-02-13T02:02:27.638Z,8.12
2023-02-13T02:03:37.655Z,8.11
2023-02-13T02:04:43.833Z,8.09
2023-02-13T02:05:52.599Z,8.08
2023-02-13T02:07:02.886Z,8.08
2023-02-13T02:08:10.364Z,8.07
2023-02-13T02:09:20.286Z,8.06
2023-02-13T02:10:22.801Z,8.06
2023-02-13T02:11:48.161Z,8.07
2023-02-13T02:13:18.068Z,8.06
2023-02-13T02:14:20.341Z,8.05
2023-02-13T02:15:22.091Z,8.06
2023-02-13T02:16:25.167Z,8.07
2023-02-13T02:17:27.150Z,8.06
2023-02-13T02:18:29.289Z,8.06
2023-02-13T02:19:36.747Z,8.05
2023-02-13T02:21:09.441Z,8.06
2023-02-13T02:23:09.659Z,8.06
2023-02-13T02:24:36.261Z,8.03
2023-02-13T02:26:03.711Z,8.03
2023-02-13T02:27:38.030Z,8.03
2023-02-13T02:29:09.190Z,8.04
2023-02-13T02:32:09.222Z,8.02
2023-02-13T02:33:16.890Z,8.02
2023-02-13T02:34:25.478Z,8.03
2023-02-13T02:35:59.439Z,8.05
2023-02-13T02:37:04.634Z,8.06
2023-02-13T02:38:39.832Z,8.06
2023-02-13T02:39:55.473Z,8.07
2023-02-13T02:41:38.053Z,8.08
2023-02-13T02:42:56.364Z,8.09
2023-02-13T02:44:35.349Z,8.10
2023-02-13T02:45:46.546Z,8.12
2023-02-13T02:47:33.515Z,8.14
2023-02-13T02:49:07.090Z,8.14
2023-02-13T02:50:14.264Z,8.15
2023-02-13T02:51:40.136Z,8.18
2023-02-13T02:52:47.628Z,8.20
2023-02-13T02:54:25.753Z,8.22
2023-02-13T02:55:59.604Z,8.23
2023-02-13T02:57:08.667Z,8.22
2023-02-13T02:58:38.302Z,8.23
2023-02-13T03:00:00.498Z,8.25
2023-02-13T03:01:25.228Z,8.26
2023-02-13T03:02:47.711Z,8.27
2023-02-13T03:04:08.739Z,8.26
2023-02-13T03:05:49.240Z,8.28
2023-02-13T03:06:58.984Z,8.25
2023-02-13T03:08:02.659Z,8.28
2023-02-13T03:09:29.128Z,8.31
2023-02-13T03:10:52.852Z,8.34
2023-02-13T03:12:14.427Z,8.33
2023-02-13T03:13:47.433Z,8.35
2023-02-13T03:14:49.000Z,8.36
2023-02-13T03:16:17.117Z,8.36
2023-02-13T03:17:37.944Z,8.33
2023-02-13T03:19:03.273Z,8.32
2023-02-13T03:20:41.498Z,8.33
2023-02-13T03:22:20.148Z,8.34
2023-02-13T03:23:54.729Z,8.33
2023-02-13T03:25:29.526Z,8.35
2023-02-13T03:26:52.368Z,8.36
2023-02-13T03:28:19.666Z,8.37
2023-02-13T03:29:48.174Z,8.37
2023-02-13T03:31:27.675Z,8.38
2023-02-13T03:32:38.955Z,8.37
2023-02-13T03:34:00.106Z,8.37
2023-02-13T03:35:57.856Z,8.40
2023-02-13T03:37:25.851Z,8.39
2023-02-13T03:38:41.799Z,8.40
2023-02-13T03:39:52.594Z,8.41
2023-02-13T03:41:19.219Z,8.41
2023-02-13T03:42:46.564Z,8.40
2023-02-13T03:44:11.714Z,8.40
2023-02-13T03:45:56.486Z,8.40
2023-02-13T03:47:02.286Z,8.39
2023-02-13T03:48:09.234Z,8.41
2023-02-13T03:49:40.746Z,8.43
2023-02-13T03:50:44.418Z,8.42
2023-02-13T03:51:55.631Z,8.42
2023-02-13T03:53:05.716Z,8.43
2023-02-13T03:54:15.827Z,8.42
2023-02-13T03:55:50.489Z,8.43
2023-02-13T03:57:12.201Z,8.42
2023-02-13T03:58:40.970Z,8.41
2023-02-13T03:59:42.634Z,8.41
2023-02-13T04:00:49.892Z,8.41
2023-02-13T04:02:10.642Z,8.43
2023-02-13T04:03:19.579Z,8.43
2023-02-13T04:04:24.754Z,8.40
2023-02-13T04:05:31.603Z,8.41
2023-02-13T04:07:11.656Z,8.43
2023-02-13T04:08:13.261Z,8.43
2023-02-13T04:09:16.437Z,8.44
2023-02-13T04:10:19.298Z,8.45
2023-02-13T04:11:24.541Z,8.47
2023-02-13T04:12:37.547Z,8.47
2023-02-13T04:13:47.534Z,8.47
2023-02-13T04:15:06.850Z,8.49
2023-02-13T04:16:17.232Z,8.50
2023-02-13T04:17:32.771Z,8.52
2023-02-13T04:18:34.617Z,8.52
2023-02-13T04:19:36.721Z,8.55
2023-02-13T04:20:39.193Z,8.57
2023-02-13T04:21:40.704Z,8.59
2023-02-13T04:22:47.414Z,8.60
2023-02-13T04:23:48.895Z,8.60
2023-02-13T04:24:50.479Z,8.61
2023-02-13T04:25:55.225Z,8.61
2023-02-13T04:26:57.366Z,8.62
2023-02-13T04:27:59.047Z,8.63
2023-02-13T04:29:00.776Z,8.65
2023-02-13T04:30:02.441Z,8.66
2023-02-13T04:31:04.161Z,8.67
2023-02-13T04:32:05.781Z,8.68
2023-02-13T04:33:07.563Z,8.70
2023-02-13T04:34:09.195Z,8.71
2023-02-13T04:35:12.286Z,8.73
2023-02-13T04:36:14.016Z,8.74
2023-02-13T04:37:15.568Z,8.75
2023-02-13T04:38:17.337Z,8.76
2023-02-13T04:39:18.922Z,8.78
2023-02-13T04:40:20.471Z,8.79
2023-02-13T04:41:22.020Z,8.81
2023-02-13T04:42:23.534Z,8.81
2023-02-13T04:43:25.227Z,8.82
2023-02-13T04:44:26.707Z,8.83
2023-02-13T04:45:28.270Z,8.83
2023-02-13T04:46:29.901Z,8.84
2023-02-13T04:47:32.529Z,8.84
2023-02-13T04:48:34.226Z,8.86
2023-02-13T04:49:36.028Z,8.86
2023-02-13T04:50:37.452Z,8.87
2023-02-13T04:51:39.147Z,8.89
2023-02-13T04:52:40.658Z,8.90
2023-02-13T04:53:42.289Z,8.91
2023-02-13T04:54:43.943Z,8.93
2023-02-13T04:55:45.746Z,8.96
2023-02-13T04:56:47.444Z,8.97
2023-02-13T04:57:55.959Z,8.99
2023-02-13T04:58:58.117Z,9.00
2023-02-13T04:59:59.680Z,9.01
2023-02-13T05:01:01.335Z,9.02
2023-02-13T05:02:02.974Z,9.03
2023-02-13T05:03:10.033Z,9.04
2023-02-13T05:04:15.583Z,9.05
2023-02-13T05:05:17.566Z,9.06
2023-02-13T05:06:19.142Z,9.07
2023-02-13T05:07:20.597Z,9.08
2023-02-13T05:08:22.096Z,9.09
2023-02-13T05:09:24.045Z,9.10
2023-02-13T05:10:26.233Z,9.11
2023-02-13T05:11:27.920Z,9.12
2023-02-13T05:12:29.453Z,9.13
2023-02-13T05:13:31.532Z,9.13
2023-02-13T05:14:33.584Z,9.14
2023-02-13T05:15:35.446Z,9.14
2023-02-13T05:16:37.185Z,9.16
2023-02-13T05:17:38.726Z,9.17
2023-02-13T05:18:40.271Z,9.18
2023-02-13T05:19:42.084Z,9.20
2023-02-13T05:20:43.919Z,9.20
2023-02-13T05:22:04.159Z,9.20
2023-02-13T05:23:22.459Z,9.21
2023-02-13T05:24:24.249Z,9.20
2023-02-13T05:25:25.886Z,9.21
2023-02-13T05:26:27.352Z,9.22
2023-02-13T05:27:29.089Z,9.22
2023-02-13T05:28:49.155Z,9.24
2023-02-13T05:29:50.610Z,9.24
2023-02-13T05:30:52.942Z,9.24
2023-02-13T05:31:56.884Z,9.24
2023-02-13T05:32:58.401Z,9.25
2023-02-13T05:34:00.550Z,9.24
2023-02-13T05:35:04.409Z,9.24
2023-02-13T05:36:06.836Z,9.20
2023-02-13T05:37:08.298Z,9.19
2023-02-13T05:38:09.773Z,9.19
2023-02-13T05:39:11.342Z,9.18
2023-02-13T05:40:14.475Z,9.19
2023-02-13T05:41:16.667Z,9.19
2023-02-13T05:42:18.086Z,9.20
2023-02-13T05:43:19.871Z,9.19
2023-02-13T05:44:21.286Z,9.21
2023-02-13T05:45:22.774Z,9.21
2023-02-13T05:46:24.454Z,9.21
2023-02-13T05:47:25.961Z,9.21
2023-02-13T05:48:27.438Z,9.22
2023-02-13T05:49:28.888Z,9.23
2023-02-13T05:50:30.493Z,9.22
2023-02-13T05:51:32.330Z,9.22
2023-02-13T05:52:33.881Z,9.21
2023-02-13T05:53:35.712Z,9.22
2023-02-13T05:54:38.856Z,9.23
2023-02-13T05:55:40.367Z,9.21
2023-02-13T05:56:42.310Z,9.20
2023-02-13T05:57:43.822Z,9.20
2023-02-13T05:58:45.200Z,9.19
2023-02-13T05:59:47.516Z,9.19
2023-02-13T06:00:49.244Z,9.18
2023-02-13T06:01:51.140Z,9.18
2023-02-13T06:02:52.800Z,9.20
2023-02-13T06:03:56.727Z,9.20
2023-02-13T06:05:00.353Z,9.21
2023-02-13T06:06:02.036Z,9.22
2023-02-13T06:07:04.473Z,9.23
2023-02-13T06:08:05.998Z,9.24
2023-02-13T06:09:07.707Z,9.24
2023-02-13T06:10:09.962Z,9.25
2023-02-13T06:11:11.750Z,9.25
2023-02-13T06:12:13.514Z,9.26
2023-02-13T06:13:15.523Z,9.26
2023-02-13T06:14:17.115Z,9.25
2023-02-13T06:15:18.607Z,9.25
2023-02-13T06:16:20.372Z,9.25
2023-02-13T06:17:22.223Z,9.25
2023-02-13T06:18:23.921Z,9.26
2023-02-13T06:19:25.673Z,9.26
2023-02-13T06:20:27.468Z,9.27
2023-02-13T06:21:28.973Z,9.28
2023-02-13T06:22:30.856Z,9.29
2023-02-13T06:23:32.586Z,9.30
2023-02-13T06:24:34.170Z,9.31
2023-02-13T06:25:36.424Z,9.34
2023-02-13T06:26:37.907Z,9.34
2023-02-13T06:27:39.602Z,9.34
2023-02-13T06:28:41.143Z,9.34
2023-02-13T06:29:42.739Z,9.34
2023-02-13T06:30:44.284Z,9.35
2023-02-13T06:31:45.870Z,9.36
2023-02-13T06:32:48.323Z,9.37
2023-02-13T06:33:49.910Z,9.37
2023-02-13T06:34:51.417Z,9.37
2023-02-13T06:35:53.149Z,9.39
2023-02-13T06:36:54.770Z,9.40
2023-02-13T06:37:56.483Z,9.39
2023-02-13T06:38:57.987Z,9.41
2023-02-13T06:39:59.767Z,9.40
2023-02-13T06:41:01.928Z,9.42
2023-02-13T06:42:03.705Z,9.43
2023-02-13T06:43:05.674Z,9.43
2023-02-13T06:44:07.288Z,9.43
2023-02-13T06:45:09.817Z,9.42
2023-02-13T06:46:11.380Z,9.44
2023-02-13T06:47:12.863Z,9.44
2023-02-13T06:48:14.538Z,9.44
2023-02-13T06:49:16.041Z,9.46
2023-02-13T06:50:18.033Z,9.47
2023-02-13T06:51:19.538Z,9.47
2023-02-13T06:52:21.214Z,9.49
2023-02-13T06:53:25.067Z,9.51
2023-02-13T06:54:40.979Z,9.53
2023-02-13T06:55:46.536Z,9.52
2023-02-13T06:56:48.012Z,9.54
2023-02-13T06:57:49.511Z,9.55
2023-02-13T06:58:51.346Z,9.55
2023-02-13T06:59:52.883Z,9.55
2023-02-13T07:00:54.520Z,9.54
2023-02-13T07:01:56.117Z,9.55
2023-02-13T07:03:05.654Z,9.55
2023-02-13T07:04:07.599Z,9.56
2023-02-13T07:05:09.466Z,9.56
2023-02-13T07:06:16.877Z,9.55
2023-02-13T07:07:18.326Z,9.55
2023-02-13T07:08:19.867Z,9.55
2023-02-13T07:09:22.676Z,9.56
2023-02-13T07:10:24.246Z,9.58
2023-02-13T07:11:25.815Z,9.59
2023-02-13T07:12:27.649Z,9.59
2023-02-13T07:13:29.156Z,9.60
2023-02-13T07:14:30.954Z,9.60
2023-02-13T07:15:34.668Z,9.60
2023-02-13T07:16:36.190Z,9.60
2023-02-13T07:17:37.783Z,9.60
2023-02-13T07:18:39.723Z,9.61
2023-02-13T07:19:41.504Z,9.61
2023-02-13T07:20:43.053Z,9.61
2023-02-13T07:21:44.514Z,9.62
2023-02-13T07:22:45.953Z,9.62
2023-02-13T07:23:47.371Z,9.62
2023-02-13T07:24:49.198Z,9.64
2023-02-13T07:25:50.657Z,9.66
2023-02-13T07:26:52.099Z,9.68
2023-02-13T07:27:53.827Z,9.70
2023-02-13T07:29:10.249Z,9.72
2023-02-13T07:30:13.641Z,9.74
2023-02-13T07:31:15.313Z,9.75
2023-02-13T07:32:16.898Z,9.77
2023-02-13T07:33:18.687Z,9.78
2023-02-13T07:34:20.153Z,9.79
2023-02-13T07:35:21.792Z,9.78
2023-02-13T07:36:23.322Z,9.80
2023-02-13T07:37:27.664Z,9.82
2023-02-13T07:38:30.430Z,9.86
2023-02-13T07:39:32.232Z,9.88
2023-02-13T07:40:34.489Z,9.90
2023-02-13T07:41:35.951Z,9.92
2023-02-13T07:42:37.387Z,9.95
2023-02-13T07:43:38.918Z,9.98
2023-02-13T07:44:40.440Z,10.00
2023-02-13T07:45:42.344Z,10.01
2023-02-13T07:46:43.879Z,10.03
2023-02-13T07:47:45.421Z,10.06
2023-02-13T07:48:46.973Z,10.10
2023-02-13T07:49:48.494Z,10.13
2023-02-13T07:50:50.370Z,10.16
2023-02-13T07:51:52.033Z,10.19
2023-02-13T07:53:00.445Z,10.20
2023-02-13T07:54:02.280Z,10.22
2023-02-13T07:55:05.502Z,10.22
2023-02-13T07:56:08.833Z,10.24
2023-02-13T07:57:10.593Z,10.26
2023-02-13T07:58:12.088Z,10.27
2023-02-13T07:59:13.664Z,10.25
2023-02-13T08:00:15.876Z,10.24
2023-02-13T08:01:19.310Z,10.22
2023-02-13T08:02:20.913Z,10.21
2023-02-13T08:03:22.416Z,10.19
2023-02-13T08:04:26.123Z,10.18
2023-02-13T08:05:30.732Z,10.16
2023-02-13T08:06:32.437Z,10.15
2023-02-13T08:07:34.331Z,10.16
2023-02-13T08:08:37.162Z,10.16
2023-02-13T08:09:57.466Z,10.16
2023-02-13T08:11:35.813Z,10.16
2023-02-13T08:12:37.618Z,10.15
2023-02-13T08:13:39.940Z,10.15
2023-02-13T08:14:41.367Z,10.16
2023-02-13T08:15:46.467Z,10.16
2023-02-13T08:16:48.449Z,10.16
2023-02-13T08:17:50.712Z,10.16
2023-02-13T08:18:52.360Z,10.16
2023-02-13T08:19:54.478Z,10.17
2023-02-13T08:20:56.002Z,10.17
2023-02-13T08:21:57.653Z,10.18
2023-02-13T08:23:07.183Z,10.20
2023-02-13T08:24:09.404Z,10.20
2023-02-13T08:25:10.962Z,10.19
2023-02-13T08:26:12.482Z,10.18
2023-02-13T08:27:15.334Z,10.18
2023-02-13T08:28:17.160Z,10.17
2023-02-13T08:29:18.902Z,10.15
2023-02-13T08:30:20.483Z,10.11
2023-02-13T08:31:22.087Z,10.10
2023-02-13T08:32:24.896Z,10.10
2023-02-13T08:33:26.663Z,10.11
2023-02-13T08:34:28.131Z,10.10
2023-02-13T08:35:31.068Z,10.08
2023-02-13T08:36:32.892Z,10.07
2023-02-13T08:37:34.504Z,10.07
2023-02-13T08:38:36.054Z,10.07
2023-02-13T08:39:37.593Z,10.05
2023-02-13T08:40:40.145Z,10.04
2023-02-13T08:41:42.830Z,10.04
2023-02-13T08:42:44.806Z,10.04
2023-02-13T08:43:46.444Z,10.06
2023-02-13T08:44:48.269Z,10.08
2023-02-13T08:45:49.904Z,10.09
2023-02-13T08:46:51.785Z,10.08
2023-02-13T08:47:57.433Z,10.10
2023-02-13T08:48:59.252Z,10.13
2023-02-13T08:50:00.795Z,10.15
2023-02-13T08:51:10.015Z,10.17
2023-02-13T08:52:11.609Z,10.19
2023-02-13T08:53:13.390Z,10.20
2023-02-13T08:54:15.680Z,10.22
2023-02-13T08:55:17.264Z,10.24
2023-02-13T08:56:18.798Z,10.22
2023-02-13T08:57:20.377Z,10.22
2023-02-13T08:58:23.161Z,10.24
2023-02-13T08:59:24.885Z,10.25
2023-02-13T09:00:27.049Z,10.25
2023-02-13T09:01:28.665Z,10.24
2023-02-13T09:02:30.303Z,10.24
2023-02-13T09:03:32.138Z,10.24
2023-02-13T09:04:33.982Z,10.25
2023-02-13T09:05:35.543Z,10.26
2023-02-13T09:06:37.209Z,10.26
2023-02-13T09:07:38.716Z,10.27
2023-02-13T09:08:40.734Z,10.28
2023-02-13T09:09:42.386Z,10.29
2023-02-13T09:10:43.954Z,10.30
2023-02-13T09:11:45.515Z,10.32
2023-02-13T09:12:53.796Z,10.35
2023-02-13T09:13:55.459Z,10.39
2023-02-13T09:14:57.118Z,10.43
2023-02-13T09:16:08.058Z,10.47
2023-02-13T09:17:10.232Z,10.50
2023-02-13T09:18:11.705Z,10.51
2023-02-13T09:19:13.406Z,10.55
2023-02-13T09:20:15.630Z,10.56
2023-02-13T09:21:19.577Z,10.58
2023-02-13T09:22:21.063Z,10.63
2023-02-13T09:23:22.722Z,10.68
2023-02-13T09:24:25.566Z,10.72
2023-02-13T09:25:27.195Z,10.75
2023-02-13T09:26:28.753Z,10.76
2023-02-13T09:27:30.314Z,10.78
2023-02-13T09:28:33.064Z,10.78
2023-02-13T09:29:34.895Z,10.82
2023-02-13T09:30:36.512Z,10.87
2023-02-13T09:31:38.133Z,10.92
2023-02-13T09:32:41.369Z,11.00
2023-02-13T09:33:44.549Z,11.07
2023-02-13T09:34:46.465Z,11.15
2023-02-13T09:35:48.145Z,11.23
2023-02-13T09:36:53.766Z,11.30
2023-02-13T09:37:55.435Z,11.32
2023-02-13T09:38:57.345Z,11.39
2023-02-13T09:39:59.157Z,11.45
2023-02-13T09:41:06.735Z,11.54
2023-02-13T09:42:20.654Z,11.61
2023-02-13T09:43:37.230Z,11.69
2023-02-13T09:44:44.377Z,11.80
2023-02-13T09:45:48.376Z,11.88
2023-02-13T09:46:50.195Z,11.91
2023-02-13T09:47:51.924Z,11.95
2023-02-13T09:48:56.600Z,11.99
2023-02-13T09:50:03.794Z,12.01
2023-02-13T09:51:05.798Z,12.02
2023-02-13T09:52:09.356Z,12.03
2023-02-13T09:53:20.463Z,12.07
2023-02-13T09:54:22.037Z,12.10
2023-02-13T09:55:36.696Z,12.04
2023-02-13T09:56:59.850Z,11.93
2023-02-13T09:58:15.742Z,11.79
2023-02-13T09:59:46.620Z,11.66
2023-02-13T10:00:53.442Z,11.53
2023-02-13T10:02:00.286Z,11.46
2023-02-13T10:03:17.433Z,11.35
2023-02-13T10:04:28.638Z,11.27
2023-02-13T10:05:58.700Z,11.20
2023-02-13T10:07:19.287Z,11.14
2023-02-13T10:08:28.727Z,11.14
2023-02-13T10:09:39.887Z,11.10
2023-02-13T10:10:57.200Z,11.03
2023-02-13T10:12:12.660Z,10.95
2023-02-13T10:14:02.472Z,10.94
2023-02-13T10:15:33.710Z,10.85
2023-02-13T10:16:41.261Z,10.77
2023-02-13T10:17:47.739Z,10.67
2023-02-13T10:19:03.229Z,10.59
2023-02-13T10:20:16.374Z,10.53
2023-02-13T10:21:27.292Z,10.50
2023-02-13T10:22:31.945Z,10.46
2023-02-13T10:23:49.588Z,10.41
2023-02-13T10:25:05.414Z,10.41
2023-02-13T10:26:14.148Z,10.50
2023-02-13T10:27:23.814Z,10.63
2023-02-13T10:28:36.243Z,10.78
2023-02-13T10:30:11.845Z,10.92
2023-02-13T10:31:22.226Z,11.08
2023-02-13T10:33:10.442Z,11.18
2023-02-13T10:34:15.728Z,11.31
2023-02-13T10:35:29.010Z,11.37
2023-02-13T10:36:35.226Z,11.31
2023-02-13T10:37:38.470Z,11.20
2023-02-13T10:38:56.463Z,11.09
2023-02-13T10:39:57.945Z,10.96
2023-02-13T10:41:22.442Z,10.88
2023-02-13T10:42:41.666Z,10.77
2023-02-13T10:44:17.351Z,10.70
2023-02-13T10:45:43.090Z,10.63
2023-02-13T10:46:53.595Z,10.54
2023-02-13T10:48:02.477Z,10.46
2023-02-13T10:49:23.037Z,10.41
2023-02-13T10:50:35.956Z,10.34
2023-02-13T10:51:50.910Z,10.34
2023-02-13T10:53:16.402Z,10.35
2023-02-13T10:54:46.289Z,10.35
2023-02-13T10:55:53.614Z,10.39
2023-02-13T10:57:20.182Z,10.37
2023-02-13T10:58:38.718Z,10.39
2023-02-13T10:59:59.203Z,10.41
2023-02-13T11:01:10.066Z,10.41
2023-02-13T11:02:20.450Z,10.42
2023-02-13T11:03:27.265Z,10.43
2023-02-13T11:04:29.571Z,10.47
2023-02-13T11:05:37.143Z,10.47
2023-02-13T11:06:50.500Z,10.49
2023-02-13T11:07:51.978Z,10.47
2023-02-13T11:08:53.608Z,10.49
2023-02-13T11:09:59.744Z,10.49
2023-02-13T11:11:01.309Z,10.52
2023-02-13T11:12:24.052Z,10.53
2023-02-13T11:13:28.651Z,10.57
2023-02-13T11:14:30.134Z,10.64
2023-02-13T11:15:32.431Z,10.62
2023-02-13T11:16:42.513Z,10.58
2023-02-13T11:17:46.089Z,10.55
2023-02-13T11:18:49.725Z,10.52
2023-02-13T11:19:55.880Z,10.54
2023-02-13T11:21:01.873Z,10.56
2023-02-13T11:22:14.541Z,10.55
2023-02-13T11:23:31.824Z,10.53
2023-02-13T11:24:34.985Z,10.51
2023-02-13T11:25:37.843Z,10.47
2023-02-13T11:26:39.710Z,10.44
2023-02-13T11:27:41.854Z,10.41
2023-02-13T11:28:55.199Z,10.37
2023-02-13T11:29:59.426Z,10.33
2023-02-13T11:31:17.932Z,10.30
2023-02-13T11:32:26.384Z,10.27
2023-02-13T11:33:28.021Z,10.23
2023-02-13T11:34:32.289Z,10.22
2023-02-13T11:35:36.001Z,10.19
2023-02-13T11:36:37.746Z,10.17
2023-02-13T11:37:39.895Z,10.16
2023-02-13T11:38:41.689Z,10.16
2023-02-13T11:39:46.224Z,10.17
2023-02-13T11:40:52.292Z,10.16
2023-02-13T11:41:53.999Z,10.18
2023-02-13T11:42:55.547Z,10.21
2023-02-13T11:44:01.802Z,10.25
2023-02-13T11:45:19.400Z,10.32
2023-02-13T11:46:24.616Z,10.40
2023-02-13T11:47:35.358Z,10.43
2023-02-13T11:48:36.848Z,10.68
2023-02-13T11:49:45.617Z,11.13
2023-02-13T11:50:52.353Z,11.77
2023-02-13T11:52:13.941Z,12.37
2023-02-13T11:53:22.408Z,13.04
2023-02-13T11:54:29.829Z,13.53
2023-02-13T11:55:34.411Z,13.86
2023-02-13T11:57:08.813Z,14.10
2023-02-13T11:58:10.631Z,14.33
2023-02-13T11:59:13.309Z,14.39
2023-02-13T12:00:37.152Z,14.38
2023-02-13T12:01:39.123Z,14.25
2023-02-13T12:02:47.713Z,14.06
2023-02-13T12:04:11.337Z,13.87
2023-02-13T12:05:20.544Z,13.66
2023-02-13T12:06:22.066Z,13.50
2023-02-13T12:07:29.078Z,13.38
2023-02-13T12:08:33.508Z,13.28
2023-02-13T12:09:38.151Z,13.19
2023-02-13T12:10:40.184Z,13.13
2023-02-13T12:11:49.451Z,13.10
2023-02-13T12:12:58.744Z,13.09
2023-02-13T12:14:00.291Z,13.07
2023-02-13T12:15:13.688Z,13.05
2023-02-13T12:16:18.189Z,13.01
2023-02-13T12:17:31.837Z,12.98
2023-02-13T12:18:38.193Z,12.94
2023-02-13T12:19:43.219Z,12.87
2023-02-13T12:21:00.841Z,12.86
2023-02-13T12:22:28.031Z,12.82
2023-02-13T12:23:51.495Z,12.80
2023-02-13T12:25:11.721Z,12.80
2023-02-13T12:26:30.055Z,12.85
2023-02-13T12:27:59.883Z,12.87
2023-02-13T12:29:01.343Z,12.91
2023-02-13T12:30:26.431Z,12.96
2023-02-13T12:31:51.915Z,13.00
2023-02-13T12:33:06.959Z,13.08
2023-02-13T12:34:33.168Z,13.09
2023-02-13T12:36:01.612Z,13.20
2023-02-13T12:37:35.664Z,13.27
2023-02-13T12:38:57.433Z,13.21
2023-02-13T12:40:20.472Z,13.37
2023-02-13T12:41:36.508Z,13.42
2023-02-13T12:43:15.792Z,13.45
2023-02-13T12:44:19.993Z,13.55
2023-02-13T12:45:40.249Z,13.67
2023-02-13T12:47:00.658Z,13.83
2023-02-13T12:48:29.979Z,13.98
2023-02-13T12:49:53.191Z,14.18
2023-02-13T12:51:13.176Z,14.34
2023-02-13T12:52:26.891Z,14.48
2023-02-13T12:53:53.338Z,14.69
2023-02-13T12:55:52.229Z,14.89
2023-02-13T12:57:05.630Z,15.04
2023-02-13T12:58:49.424Z,15.08
2023-02-13T13:00:09.011Z,15.10
2023-02-13T13:01:16.999Z,15.10
2023-02-13T13:02:47.602Z,15.21
2023-02-13T13:03:58.519Z,15.45
2023-02-13T13:05:16.409Z,15.42
2023-02-13T13:06:27.958Z,15.46
2023-02-13T13:07:57.085Z,15.57
2023-02-13T13:09:15.752Z,15.70
2023-02-13T13:10:45.300Z,15.86
2023-02-13T13:12:11.881Z,16.10
2023-02-13T13:13:39.423Z,16.29
2023-02-13T13:15:00.304Z,16.43
2023-02-13T13:16:36.433Z,16.56
2023-02-13T13:17:51.797Z,16.70
2023-02-13T13:19:41.177Z,16.81
2023-02-13T13:20:54.901Z,16.78
2023-02-13T13:22:05.519Z,16.82
2023-02-13T13:23:18.882Z,16.89
2023-02-13T13:24:49.952Z,16.97
2023-02-13T13:25:56.916Z,17.04
2023-02-13T13:27:01.360Z,17.14
2023-02-13T13:28:29.098Z,17.25
2023-02-13T13:29:44.169Z,17.43
2023-02-13T13:30:46.961Z,17.58
2023-02-13T13:32:00.726Z,17.65
2023-02-13T13:33:29.145Z,17.63
2023-02-13T13:34:33.665Z,17.57
2023-02-13T13:35:38.253Z,17.47
2023-02-13T13:36:49.335Z,17.32
2023-02-13T13:38:01.814Z,17.16
2023-02-13T13:39:16.365Z,17.00
2023-02-13T13:40:27.821Z,16.91
2023-02-13T13:41:46.861Z,16.87
2023-02-13T13:42:52.465Z,16.82
2023-02-13T13:43:56.844Z,16.79
2023-02-13T13:45:16.956Z,16.78
2023-02-13T13:46:44.217Z,16.73
2023-02-13T13:47:53.870Z,16.63
2023-02-13T13:49:23.103Z,16.57
2023-02-13T13:50:27.928Z,16.45
2023-02-13T13:51:30.078Z,16.31
2023-02-13T13:52:36.673Z,16.21
2023-02-13T13:54:07.162Z,16.07
2023-02-13T13:55:28.555Z,15.89
2023-02-13T13:56:52.035Z,15.67
2023-02-13T13:57:56.730Z,15.45
2023-02-13T13:58:58.169Z,15.21
2023-02-13T14:00:01.391Z,14.96
2023-02-13T14:01:20.477Z,14.71
2023-02-13T14:02:21.935Z,14.39
2023-02-13T14:03:35.000Z,14.21
2023-02-13T14:04:39.913Z,13.93
2023-02-13T14:06:00.196Z,13.71
2023-02-13T14:07:01.727Z,13.52
2023-02-13T14:08:46.325Z,13.34
2023-02-13T14:09:48.478Z,13.08
2023-02-13T14:10:59.757Z,12.86
2023-02-13T14:12:24.065Z,12.63
2023-02-13T14:13:32.549Z,12.46
2023-02-13T14:14:33.977Z,12.27
2023-02-13T14:15:43.771Z,12.10
2023-02-13T14:16:45.805Z,11.96
2023-02-13T14:17:51.627Z,11.84
2023-02-13T14:18:53.206Z,11.67
2023-02-13T14:19:56.881Z,11.52
2023-02-13T14:21:01.355Z,11.34
2023-02-13T14:22:18.008Z,11.15
2023-02-13T14:23:34.601Z,11.10
2023-02-13T14:24:36.350Z,10.90
2023-02-13T14:25:38.056Z,10.80
2023-02-13T14:26:40.550Z,10.72
2023-02-13T14:27:42.073Z,10.54
2023-02-13T14:28:49.486Z,10.40
2023-02-13T14:29:51.463Z,10.27
2023-02-13T14:31:09.150Z,10.12
2023-02-13T14:32:32.926Z,9.98
2023-02-13T14:33:34.840Z,9.86
2023-02-13T14:34:38.845Z,9.80
2023-02-13T14:35:40.682Z,9.76
2023-02-13T14:36:45.909Z,9.72
2023-02-13T14:37:51.526Z,9.68
2023-02-13T14:39:02.235Z,9.62
2023-02-13T14:40:32.871Z,9.57
2023-02-13T14:41:55.952Z,9.47
2023-02-13T14:43:26.766Z,9.44
2023-02-13T14:44:46.922Z,9.37
2023-02-13T14:45:54.757Z,9.29
2023-02-13T14:46:59.489Z,9.26
2023-02-13T14:48:12.772Z,9.19
2023-02-13T14:49:26.188Z,9.09
2023-02-13T14:50:31.893Z,9.04
2023-02-13T14:51:40.826Z,8.97
2023-02-13T14:52:46.705Z,8.94
2023-02-13T14:53:54.569Z,8.97
2023-02-13T14:55:02.276Z,8.91
2023-02-13T14:56:13.802Z,8.83
2023-02-13T14:57:26.556Z,8.75
2023-02-13T14:58:32.866Z,8.71
2023-02-13T14:59:39.787Z,8.66
2023-02-13T15:00:53.221Z,8.63